Time;durP1;ratioP1;P1;durP2;ratioP2;P2;SDS_P1;SDS_P2;PMS_P1;PMS_P2;Temp;Humidity;BMP_temperature;BMP_pressure;BME280_temperature;BME280_humidity;BME280_pressure;Samples;Min_cycle;Max_cycle;Signal;HPM_P1;HPM_P2
2021/09/16 00:00:59;;;;;;;2.42;0.75;;;21.50;79.70;;;;;;4192446;28;20048;-62
2021/09/16 00:03:22;;;;;;;1.50;0.68;;;21.50;79.90;;;;;;4177381;28;20049;-62
2021/09/16 00:05:44;;;;;;;2.28;0.50;;;21.50;79.80;;;;;;4176518;28;20127;-63
2021/09/16 00:08:06;;;;;;;1.92;0.70;;;21.50;80.00;;;;;;4176790;28;20052;-62
2021/09/16 00:10:28;;;;;;;1.17;0.50;;;21.50;79.60;;;;;;4177041;28;20812;-62
2021/09/16 00:12:50;;;;;;;2.17;0.60;;;21.50;79.80;;;;;;4192552;28;20113;-62
2021/09/16 00:15:14;;;;;;;1.05;0.60;;;21.50;80.30;;;;;;4180294;28;20072;-63
2021/09/16 00:17:36;;;;;;;1.52;0.52;;;21.50;80.10;;;;;;4178742;28;20189;-63
2021/09/16 00:20:00;;;;;;;1.77;0.65;;;21.50;80.30;;;;;;4191510;28;20080;-63
2021/09/16 00:22:22;;;;;;;1.55;0.60;;;21.50;80.30;;;;;;4193215;28;20139;-62
2021/09/16 00:24:44;;;;;;;1.05;0.50;;;21.50;80.20;;;;;;4179469;28;20053;-62
2021/09/16 00:27:06;;;;;;;2.83;0.90;;;21.50;80.20;;;;;;4175770;28;20135;-63
2021/09/16 00:29:28;;;;;;;2.45;0.60;;;21.50;80.30;;;;;;4192927;28;20041;-63
2021/09/16 00:31:50;;;;;;;1.95;0.65;;;21.40;80.20;;;;;;4190099;28;20514;-63
2021/09/16 00:34:12;;;;;;;3.25;0.70;;;21.40;80.20;;;;;;4192915;28;20055;-63
2021/09/16 00:36:37;;;;;;;1.05;0.50;;;21.40;80.10;;;;;;4187179;28;20107;-63
2021/09/16 00:38:59;;;;;;;1.30;0.50;;;21.40;80.00;;;;;;4176292;28;20060;-63
2021/09/16 00:41:21;;;;;;;0.75;0.30;;;21.40;80.30;;;;;;4176268;28;20041;-63
2021/09/16 00:43:43;;;;;;;1.63;0.70;;;21.40;80.30;;;;;;4175969;28;20070;-62
2021/09/16 00:46:07;;;;;;;1.13;0.68;;;21.40;80.10;;;;;;4176257;28;20045;-63
2021/09/16 00:48:29;;;;;;;1.73;0.75;;;21.40;80.20;;;;;;4176179;28;20044;-63
2021/09/16 00:50:51;;;;;;;2.47;0.75;;;21.40;80.30;;;;;;4175992;28;20049;-63
2021/09/16 00:53:17;;;;;;;1.17;0.50;;;21.40;80.20;;;;;;4189659;28;20083;-62
2021/09/16 00:55:42;;;;;;;1.77;0.77;;;21.40;79.70;;;;;;4192105;28;20547;-63
2021/09/16 00:58:04;;;;;;;1.27;0.80;;;21.40;80.20;;;;;;4192580;28;20068;-62
2021/09/16 01:00:26;;;;;;;1.65;0.90;;;21.40;80.40;;;;;;4183392;28;20056;-63
2021/09/16 01:02:49;;;;;;;2.38;0.90;;;21.40;80.30;;;;;;4175710;28;20073;-62
2021/09/16 01:05:12;;;;;;;1.85;0.60;;;21.40;80.00;;;;;;4176015;28;20098;-62
2021/09/16 01:07:36;;;;;;;2.97;0.85;;;21.40;80.10;;;;;;4175918;28;20049;-63
2021/09/16 01:10:01;;;;;;;2.45;0.70;;;21.40;80.10;;;;;;4175467;28;20069;-62
2021/09/16 01:12:23;;;;;;;1.40;0.57;;;21.30;80.20;;;;;;4175479;28;20044;-63
2021/09/16 01:14:46;;;;;;;1.92;0.60;;;21.30;80.40;;;;;;4175773;28;20045;-63
2021/09/16 01:17:08;;;;;;;1.20;0.60;;;21.30;80.40;;;;;;4175791;28;20053;-63
2021/09/16 01:19:30;;;;;;;0.68;0.68;;;21.30;80.40;;;;;;4175062;28;20040;-63
2021/09/16 01:21:52;;;;;;;2.05;0.73;;;21.30;80.30;;;;;;4168435;28;20464;-63
2021/09/16 01:24:16;;;;;;;1.38;0.60;;;21.30;80.30;;;;;;4179412;28;20056;-63
2021/09/16 01:26:37;;;;;;;2.53;0.75;;;21.30;80.20;;;;;;4192237;28;20040;-63
2021/09/16 01:28:59;;;;;;;1.95;0.65;;;21.30;80.40;;;;;;4191708;28;20052;-63
2021/09/16 01:31:37;;;;;;;2.33;0.82;;;21.30;80.40;;;;;;4176608;28;20059;-62
2021/09/16 01:34:02;;;;;;;1.45;0.55;;;21.30;79.80;;;;;;4174981;28;20427;-63
2021/09/16 01:36:24;;;;;;;2.42;0.70;;;21.30;80.20;;;;;;4175413;28;20169;-63
2021/09/16 01:38:46;;;;;;;1.13;0.70;;;21.30;80.10;;;;;;4175242;28;20110;-63
2021/09/16 01:41:10;;;;;;;0.98;0.52;;;21.30;80.50;;;;;;4174662;28;20040;-62
2021/09/16 01:43:32;;;;;;;1.63;0.70;;;21.30;80.30;;;;;;4175243;28;20072;-62
2021/09/16 01:45:54;;;;;;;2.25;0.70;;;21.30;80.40;;;;;;4175046;28;20048;-63
2021/09/16 01:48:17;;;;;;;2.35;0.63;;;21.20;80.20;;;;;;4180561;28;20438;-62
2021/09/16 01:50:39;;;;;;;2.75;0.70;;;21.20;80.10;;;;;;4191091;28;20558;-62
2021/09/16 01:53:00;;;;;;;0.65;0.60;;;21.20;80.80;;;;;;4191621;28;20061;-62
2021/09/16 01:55:23;;;;;;;1.85;0.82;;;21.20;80.60;;;;;;4174875;28;20406;-63
2021/09/16 01:57:47;;;;;;;1.42;0.85;;;21.20;80.70;;;;;;4175003;28;20057;-62
2021/09/16 02:00:11;;;;;;;1.58;0.80;;;21.20;81.00;;;;;;4185904;28;20118;-63
2021/09/16 02:02:34;;;;;;;1.50;0.80;;;21.20;80.90;;;;;;4174553;28;20056;-62
2021/09/16 02:04:56;;;;;;;1.85;0.98;;;21.20;80.80;;;;;;4174997;28;20076;-63
2021/09/16 02:07:18;;;;;;;2.67;0.90;;;21.20;80.70;;;;;;4175168;28;20043;-63
2021/09/16 02:09:40;;;;;;;2.83;1.00;;;21.20;81.00;;;;;;4190853;28;20050;-63
2021/09/16 02:12:02;;;;;;;1.90;0.65;;;21.20;80.70;;;;;;4191403;28;20052;-63
2021/09/16 02:14:26;;;;;;;1.55;0.50;;;21.20;80.60;;;;;;4191245;28;20544;-63
2021/09/16 02:16:48;;;;;;;1.58;0.77;;;21.20;80.90;;;;;;4191191;28;20071;-62
2021/09/16 02:19:10;;;;;;;1.27;0.68;;;21.20;80.90;;;;;;4191242;28;20113;-63
2021/09/16 02:21:32;;;;;;;1.63;0.80;;;21.20;81.10;;;;;;4191673;28;20131;-62
2021/09/16 02:23:54;;;;;;;2.95;0.95;;;21.10;81.20;;;;;;4191722;28;20410;-62
2021/09/16 02:26:16;;;;;;;2.45;1.00;;;21.20;81.50;;;;;;4191330;28;20052;-63
2021/09/16 02:28:38;;;;;;;2.00;0.90;;;21.10;81.20;;;;;;4191157;28;20557;-62
2021/09/16 02:31:02;;;;;;;1.30;1.00;;;21.10;81.50;;;;;;4190709;28;20102;-62
2021/09/16 02:33:24;;;;;;;2.53;1.42;;;21.10;81.50;;;;;;4191143;28;20097;-62
2021/09/16 02:35:51;;;;;;;0.68;0.65;;;21.10;81.60;;;;;;4191181;28;20558;-62
2021/09/16 02:38:13;;;;;;;2.33;0.68;;;21.10;81.50;;;;;;4190504;28;20052;-62
2021/09/16 02:40:35;;;;;;;2.35;0.70;;;21.10;81.80;;;;;;4190825;28;20079;-62
2021/09/16 02:42:58;;;;;;;2.72;1.33;;;21.10;81.80;;;;;;4191185;28;20056;-62
2021/09/16 02:45:20;;;;;;;1.60;0.93;;;21.10;81.90;;;;;;4191197;28;20045;-63
2021/09/16 02:47:44;;;;;;;0.98;0.88;;;21.10;82.10;;;;;;4191232;28;20496;-63
2021/09/16 02:50:07;;;;;;;3.97;1.55;;;21.10;82.00;;;;;;4174617;28;20045;-63
2021/09/16 02:52:29;;;;;;;0.68;0.50;;;21.10;82.20;;;;;;4174726;28;20114;-63
2021/09/16 02:54:50;;;;;;;1.83;0.85;;;21.10;82.10;;;;;;4168099;28;20045;-63
2021/09/16 02:57:12;;;;;;;2.97;1.00;;;21.10;82.30;;;;;;4174421;28;20146;-63
2021/09/16 02:59:34;;;;;;;1.02;0.63;;;21.10;82.40;;;;;;4187668;28;20040;-63
2021/09/16 03:01:56;;;;;;;1.20;0.82;;;21.10;82.60;;;;;;4189428;28;20059;-63
2021/09/16 03:04:20;;;;;;;3.40;1.23;;;21.10;82.60;;;;;;4191071;28;20048;-63
2021/09/16 03:06:42;;;;;;;1.92;0.95;;;21.10;82.80;;;;;;4188680;28;20041;-62
2021/09/16 03:09:04;;;;;;;1.60;1.05;;;21.10;82.70;;;;;;4187171;28;20491;-63
2021/09/16 03:11:26;;;;;;;2.90;1.33;;;21.10;82.60;;;;;;4190942;28;20048;-62
2021/09/16 03:13:48;;;;;;;1.10;0.82;;;21.10;82.60;;;;;;4190750;28;20044;-63
2021/09/16 03:16:10;;;;;;;1.98;0.75;;;21.10;82.80;;;;;;4191078;28;20049;-62
2021/09/16 03:18:32;;;;;;;1.85;0.80;;;21.10;82.80;;;;;;4182193;28;20136;-63
2021/09/16 03:20:56;;;;;;;2.28;1.13;;;21.00;82.90;;;;;;4174134;28;20127;-63
2021/09/16 03:23:18;;;;;;;4.95;1.30;;;21.00;83.00;;;;;;4174258;28;20057;-63
2021/09/16 03:25:41;;;;;;;1.77;0.90;;;21.00;83.10;;;;;;4174257;28;20056;-63
2021/09/16 03:28:04;;;;;;;1.63;1.33;;;21.00;83.20;;;;;;4174263;28;20063;-62
2021/09/16 03:30:26;;;;;;;0.85;0.77;;;21.00;83.30;;;;;;4174207;28;20052;-63
2021/09/16 03:32:49;;;;;;;1.52;0.80;;;21.00;83.30;;;;;;4173990;28;20079;-63
2021/09/16 03:35:11;;;;;;;1.27;0.77;;;21.00;83.30;;;;;;4190923;28;20090;-62
2021/09/16 03:37:35;;;;;;;3.70;0.98;;;21.00;83.40;;;;;;4174081;28;20052;-62
2021/09/16 03:39:57;;;;;;;1.33;0.88;;;21.00;83.50;;;;;;4157748;28;20049;-64
2021/09/16 03:42:20;;;;;;;1.05;0.90;;;21.00;83.50;;;;;;4173424;28;20049;-62
2021/09/16 03:44:42;;;;;;;2.53;1.20;;;21.00;83.60;;;;;;4193785;28;20073;-63
2021/09/16 03:47:04;;;;;;;1.33;1.10;;;21.00;83.60;;;;;;4177116;28;20045;-62
2021/09/16 03:49:27;;;;;;;1.52;1.30;;;21.00;83.70;;;;;;4176914;28;20055;-62
2021/09/16 03:51:49;;;;;;;2.28;1.08;;;21.00;83.80;;;;;;4160462;28;20045;-62
2021/09/16 03:54:12;;;;;;;2.17;1.10;;;21.00;83.70;;;;;;4160204;28;20136;-62
2021/09/16 03:56:34;;;;;;;1.83;1.30;;;21.00;83.70;;;;;;4167763;28;20087;-62
2021/09/16 03:58:56;;;;;;;2.17;1.40;;;21.00;83.90;;;;;;4176755;28;20161;-62
2021/09/16 04:01:18;;;;;;;1.48;1.23;;;21.00;83.90;;;;;;4175865;28;20055;-62
2021/09/16 04:03:40;;;;;;;2.53;1.20;;;21.00;83.90;;;;;;4176457;28;20582;-62
2021/09/16 04:06:02;;;;;;;1.33;1.02;;;21.00;83.90;;;;;;4176878;28;20056;-63
2021/09/16 04:08:24;;;;;;;3.42;1.48;;;21.00;84.00;;;;;;4176273;28;20566;-62
2021/09/16 04:10:48;;;;;;;2.78;1.40;;;21.00;83.90;;;;;;4176730;28;20495;-63
2021/09/16 04:13:10;;;;;;;2.30;1.48;;;21.00;83.90;;;;;;4176459;28;20048;-63
2021/09/16 04:15:32;;;;;;;1.73;1.63;;;21.00;84.00;;;;;;4193096;28;20036;-62
2021/09/16 04:17:54;;;;;;;3.97;1.70;;;21.00;83.90;;;;;;4176587;28;20045;-62
2021/09/16 04:20:16;;;;;;;2.22;1.45;;;21.00;84.00;;;;;;4176776;28;20077;-62
2021/09/16 04:22:38;;;;;;;1.75;1.65;;;21.00;84.00;;;;;;4176288;28;20076;-62
2021/09/16 04:25:01;;;;;;;3.35;1.50;;;21.00;83.90;;;;;;4176584;28;20483;-62
2021/09/16 04:27:24;;;;;;;3.92;1.90;;;21.00;83.90;;;;;;4176276;28;20044;-62
2021/09/16 04:29:46;;;;;;;2.92;1.88;;;21.00;83.90;;;;;;4176338;28;20048;-62
2021/09/16 04:32:09;;;;;;;3.20;2.15;;;21.00;84.00;;;;;;4176600;28;20049;-62
2021/09/16 04:34:31;;;;;;;1.65;1.55;;;21.00;83.90;;;;;;4176352;28;20045;-62
2021/09/16 04:36:53;;;;;;;1.95;1.75;;;21.00;83.90;;;;;;4176253;28;20466;-62
2021/09/16 04:39:15;;;;;;;2.55;2.10;;;21.00;84.80;;;;;;4161279;28;20442;-61
2021/09/16 04:41:37;;;;;;;2.00;1.73;;;21.00;83.90;;;;;;4192681;28;20486;-62
2021/09/16 04:44:01;;;;;;;2.40;2.17;;;21.00;83.90;;;;;;4192811;28;20052;-62
2021/09/16 04:46:23;;;;;;;1.98;1.70;;;21.00;83.90;;;;;;4191391;28;20044;-61
2021/09/16 04:48:45;;;;;;;3.80;2.10;;;21.00;83.90;;;;;;4176396;28;20431;-64
2021/09/16 04:51:07;;;;;;;3.45;2.00;;;21.00;83.90;;;;;;4176212;28;20499;-63
2021/09/16 04:53:30;;;;;;;4.68;2.30;;;21.00;84.80;;;;;;4175056;28;20056;-63
2021/09/16 04:55:52;;;;;;;2.88;2.00;;;21.00;83.90;;;;;;4176136;28;20136;-63
2021/09/16 04:58:14;;;;;;;5.88;2.55;;;21.00;84.00;;;;;;4186787;28;20193;-63
2021/09/16 05:00:38;;;;;;;4.25;2.63;;;20.90;84.00;;;;;;4192619;28;20052;-63
2021/09/16 05:03:00;;;;;;;8.57;2.80;;;20.90;84.10;;;;;;4192530;28;20064;-63
2021/09/16 05:05:22;;;;;;;5.43;2.30;;;20.90;84.00;;;;;;4175822;28;20514;-62
2021/09/16 05:07:44;;;;;;;2.58;2.10;;;20.90;84.10;;;;;;4186713;28;20136;-63
2021/09/16 05:10:08;;;;;;;3.00;2.22;;;21.00;84.20;;;;;;4175683;28;20048;-63
2021/09/16 05:12:31;;;;;;;3.58;2.28;;;20.90;84.10;;;;;;4175612;28;20087;-63
2021/09/16 05:14:53;;;;;;;6.82;2.50;;;20.90;84.20;;;;;;4175431;28;20053;-63
2021/09/16 05:17:17;;;;;;;4.65;2.72;;;20.90;84.20;;;;;;4175196;28;20557;-63
2021/09/16 05:19:39;;;;;;;3.08;2.67;;;20.90;84.20;;;;;;4175812;28;20052;-63
2021/09/16 05:22:02;;;;;;;3.92;2.63;;;20.90;84.30;;;;;;4175461;28;20080;-63
2021/09/16 05:24:24;;;;;;;3.53;2.42;;;20.90;84.30;;;;;;4175363;28;20474;-63
2021/09/16 05:26:48;;;;;;;4.72;2.17;;;20.90;84.40;;;;;;4185073;28;20490;-63
2021/09/16 05:29:10;;;;;;;5.35;2.05;;;20.90;84.40;;;;;;4175497;28;20061;-62
2021/09/16 05:31:33;;;;;;;5.55;2.50;;;20.90;84.40;;;;;;4175192;28;20049;-62
2021/09/16 05:33:57;;;;;;;2.60;2.13;;;20.90;84.40;;;;;;4175347;28;20132;-62
2021/09/16 05:36:20;;;;;;;2.83;2.30;;;20.90;84.50;;;;;;4190927;28;20102;-62
2021/09/16 05:38:42;;;;;;;3.53;2.22;;;20.90;84.60;;;;;;4191563;28;20052;-61
2021/09/16 05:41:04;;;;;;;5.30;2.65;;;20.90;84.70;;;;;;4191564;28;20048;-62
2021/09/16 05:43:27;;;;;;;5.60;3.03;;;20.90;84.70;;;;;;4191453;28;20048;-62
2021/09/16 05:45:50;;;;;;;3.00;1.95;;;20.90;84.80;;;;;;4191790;28;20062;-61
2021/09/16 05:48:12;;;;;;;4.80;2.13;;;20.90;84.80;;;;;;4191018;28;20052;-61
2021/09/16 05:50:37;;;;;;;3.13;2.35;;;20.90;84.90;;;;;;4186993;28;20045;-65
2021/09/16 05:52:59;;;;;;;4.22;2.10;;;20.90;85.00;;;;;;4174698;28;20920;-61
2021/09/16 05:55:22;;;;;;;5.05;2.50;;;21.00;85.40;;;;;;4191598;28;20413;-63
2021/09/16 05:57:44;;;;;;;4.47;2.05;;;21.00;85.30;;;;;;4191284;28;20044;-62
2021/09/16 06:00:09;;;;;;;4.82;2.40;;;21.00;85.10;;;;;;4191808;28;20050;-63
2021/09/16 06:02:32;;;;;;;2.35;2.17;;;21.00;85.10;;;;;;4191243;28;20067;-61
2021/09/16 06:04:54;;;;;;;2.42;1.88;;;21.00;85.10;;;;;;4180323;28;20037;-60
2021/09/16 06:07:18;;;;;;;2.88;2.25;;;21.00;84.90;;;;;;4183297;28;20066;-62
2021/09/16 06:09:41;;;;;;;2.80;2.20;;;21.00;85.00;;;;;;4188067;28;20049;-61
2021/09/16 06:12:06;;;;;;;3.13;2.25;;;21.00;84.90;;;;;;4187549;28;20126;-63
2021/09/16 06:14:28;;;;;;;6.13;2.22;;;21.00;85.00;;;;;;4174403;28;20102;-63
2021/09/16 06:16:52;;;;;;;3.22;2.35;;;21.00;85.00;;;;;;4173978;28;20048;-63
2021/09/16 06:19:17;;;;;;;2.80;2.28;;;20.90;85.00;;;;;;4174060;28;20045;-62
2021/09/16 06:21:41;;;;;;;3.90;2.15;;;20.90;84.90;;;;;;4186521;28;20052;-61
2021/09/16 06:24:05;;;;;;;2.78;2.03;;;20.90;85.00;;;;;;4190087;28;20055;-61
2021/09/16 06:26:29;;;;;;;5.25;2.10;;;21.00;85.10;;;;;;4191173;28;20068;-61
2021/09/16 06:28:51;;;;;;;4.55;2.60;;;20.90;85.00;;;;;;4189585;28;20052;-62
2021/09/16 06:31:14;;;;;;;2.65;1.95;;;20.90;84.90;;;;;;4191377;28;20041;-61
2021/09/16 06:33:37;;;;;;;5.60;1.83;;;20.90;84.90;;;;;;4174363;28;20044;-61
2021/09/16 06:35:59;;;;;;;4.35;2.10;;;20.90;85.00;;;;;;4174831;28;20118;-62
2021/09/16 06:38:22;;;;;;;4.70;2.10;;;20.90;85.00;;;;;;4186018;28;20048;-61
2021/09/16 06:40:46;;;;;;;3.65;2.13;;;20.90;85.00;;;;;;4191451;28;20053;-61
2021/09/16 06:43:08;;;;;;;5.65;2.85;;;20.90;85.00;;;;;;4175896;28;20087;-60
2021/09/16 06:45:31;;;;;;;3.22;2.17;;;20.90;85.00;;;;;;4174529;28;20041;-61
2021/09/16 06:47:54;;;;;;;5.15;2.30;;;20.90;85.20;;;;;;4175621;28;20052;-61
2021/09/16 06:50:17;;;;;;;5.43;2.30;;;20.90;85.20;;;;;;4173869;28;20198;-62
2021/09/16 06:52:39;;;;;;;4.45;2.25;;;20.90;85.10;;;;;;4173989;28;20049;-60
2021/09/16 06:55:02;;;;;;;4.80;2.38;;;20.90;85.00;;;;;;4187637;28;20068;-60
2021/09/16 06:57:26;;;;;;;5.15;2.20;;;20.90;84.90;;;;;;4188635;28;20045;-60
2021/09/16 06:59:48;;;;;;;4.72;2.25;;;20.90;85.00;;;;;;4190798;28;20041;-60
2021/09/16 07:02:11;;;;;;;3.55;2.65;;;20.90;85.00;;;;;;4190283;28;20132;-61
2021/09/16 07:04:34;;;;;;;4.05;2.42;;;20.90;85.00;;;;;;4190727;28;20057;-60
2021/09/16 07:06:58;;;;;;;8.10;2.58;;;20.80;85.00;;;;;;4190149;28;20755;-60
2021/09/16 07:09:20;;;;;;;8.65;2.83;;;20.80;85.00;;;;;;4190712;28;20098;-62
2021/09/16 07:11:43;;;;;;;4.75;2.38;;;20.80;84.90;;;;;;4188307;28;20071;-62
2021/09/16 07:14:07;;;;;;;6.60;3.00;;;20.90;85.10;;;;;;4174408;28;20063;-61
2021/09/16 07:16:30;;;;;;;7.15;2.13;;;20.90;85.30;;;;;;4189177;28;20052;-61
2021/09/16 07:18:52;;;;;;;5.28;2.53;;;20.80;85.20;;;;;;4178247;28;20056;-62
2021/09/16 07:21:14;;;;;;;7.78;2.75;;;20.90;85.30;;;;;;4177197;28;20071;-61
2021/09/16 07:23:37;;;;;;;2.58;2.30;;;20.80;85.20;;;;;;4175740;28;20049;-61
2021/09/16 07:26:16;;;;;;;2.03;1.73;;;20.80;85.20;;;;;;4177298;28;20053;-61
2021/09/16 07:28:38;;;;;;;2.35;1.90;;;20.80;85.30;;;;;;4180843;28;20558;-60
2021/09/16 07:31:03;;;;;;;6.70;2.85;;;20.80;85.20;;;;;;4177202;28;20052;-60
2021/09/16 07:33:25;;;;;;;4.55;2.33;;;20.80;85.20;;;;;;4177072;28;20049;-62
2021/09/16 07:35:48;;;;;;;3.83;2.40;;;20.80;85.20;;;;;;4176110;28;20562;-59
2021/09/16 07:38:10;;;;;;;4.32;2.35;;;20.80;85.10;;;;;;4177132;28;20052;-61
2021/09/16 07:40:33;;;;;;;5.53;2.40;;;20.80;85.10;;;;;;4177226;28;20045;-60
2021/09/16 07:42:55;;;;;;;4.57;2.20;;;20.80;85.10;;;;;;4173705;28;20055;-63
2021/09/16 07:45:18;;;;;;;5.00;2.28;;;20.80;85.00;;;;;;4160827;28;20053;-62
2021/09/16 07:47:42;;;;;;;3.15;1.35;;;20.80;85.00;;;;;;4160717;28;20048;-63
2021/09/16 07:50:05;;;;;;;4.47;1.63;;;20.80;84.70;;;;;;4160294;28;20057;-61
2021/09/16 07:52:28;;;;;;;5.50;1.52;;;20.80;84.60;;;;;;4161749;28;20503;-62
2021/09/16 07:54:50;;;;;;;3.88;1.67;;;20.80;84.40;;;;;;4189766;28;20490;-61
2021/09/16 07:57:13;;;;;;;1.73;1.45;;;20.80;84.50;;;;;;4193236;28;20152;-59
2021/09/16 07:59:35;;;;;;;5.30;1.98;;;20.80;84.40;;;;;;4193555;28;20487;-61
2021/09/16 08:01:58;;;;;;;1.63;1.30;;;20.80;84.60;;;;;;4193190;28;20052;-60
2021/09/16 08:04:23;;;;;;;4.18;1.73;;;20.80;84.40;;;;;;4186695;28;20434;-59
2021/09/16 08:06:45;;;;;;;3.20;1.80;;;20.80;84.50;;;;;;4192097;28;20048;-62
2021/09/16 08:09:08;;;;;;;3.20;1.48;;;20.80;84.40;;;;;;4192962;28;20445;-61
2021/09/16 08:11:31;;;;;;;4.32;1.70;;;20.80;84.40;;;;;;4193260;28;20048;-60
2021/09/16 08:13:53;;;;;;;3.22;1.60;;;20.80;84.40;;;;;;4193350;28;20055;-61
2021/09/16 08:16:16;;;;;;;4.80;2.10;;;20.80;84.40;;;;;;4193274;28;20060;-61
2021/09/16 08:18:39;;;;;;;3.55;1.67;;;20.80;84.50;;;;;;4192984;28;20095;-61
2021/09/16 08:21:03;;;;;;;3.67;2.25;;;20.80;84.70;;;;;;4192514;28;20112;-60
2021/09/16 08:23:25;;;;;;;6.35;2.20;;;20.80;84.80;;;;;;4192696;28;20482;-62
2021/09/16 08:25:48;;;;;;;3.65;1.90;;;20.80;84.90;;;;;;4192788;28;20044;-60
2021/09/16 08:28:11;;;;;;;4.47;2.63;;;20.80;85.10;;;;;;4192517;28;20102;-61
2021/09/16 08:30:33;;;;;;;4.93;2.40;;;20.80;85.20;;;;;;4192614;28;20078;-61
2021/09/16 08:32:56;;;;;;;4.72;2.03;;;20.80;85.30;;;;;;4192965;28;20044;-60
2021/09/16 08:35:20;;;;;;;6.03;2.35;;;20.80;85.50;;;;;;4192933;28;20036;-62
2021/09/16 08:37:44;;;;;;;4.93;2.78;;;20.80;85.50;;;;;;4193015;28;20068;-61
2021/09/16 08:40:09;;;;;;;4.00;2.22;;;20.80;85.60;;;;;;4192981;28;20060;-62
2021/09/16 08:42:32;;;;;;;6.55;2.28;;;20.80;85.70;;;;;;4192542;28;20102;-61
2021/09/16 08:44:55;;;;;;;6.38;2.63;;;20.80;85.70;;;;;;4192429;28;20052;-62
2021/09/16 08:47:18;;;;;;;3.90;2.10;;;20.80;85.80;;;;;;4192334;28;20047;-60
2021/09/16 08:49:41;;;;;;;4.70;2.40;;;20.80;85.80;;;;;;4192779;28;20076;-61
2021/09/16 08:52:04;;;;;;;5.85;2.70;;;20.80;85.70;;;;;;4191816;28;20056;-61
2021/09/16 08:54:30;;;;;;;5.50;2.67;;;20.80;85.60;;;;;;4190751;28;20048;-60
2021/09/16 08:56:53;;;;;;;2.95;1.73;;;20.80;85.50;;;;;;4192403;28;20127;-59
2021/09/16 08:59:15;;;;;;;3.05;2.20;;;20.80;85.50;;;;;;4176176;28;20044;-61
2021/09/16 09:01:38;;;;;;;3.22;1.80;;;20.80;85.50;;;;;;4165227;28;20480;-60
2021/09/16 09:04:01;;;;;;;3.85;2.00;;;20.80;85.40;;;;;;4175335;28;20080;-63
2021/09/16 09:06:28;;;;;;;3.55;2.10;;;20.80;85.40;;;;;;4192375;28;20196;-62
2021/09/16 09:09:06;;;;;;;6.25;2.70;;;20.80;85.40;;;;;;4192562;28;20053;-63
2021/09/16 09:11:30;;;;;;;4.43;1.80;;;20.80;85.30;;;;;;4190171;28;20529;-61
2021/09/16 09:13:57;;;;;;;5.13;2.45;;;20.80;85.30;;;;;;4191723;28;20139;-61
2021/09/16 09:16:33;;;;;;;4.55;1.80;;;20.90;85.40;;;;;;4192365;28;20052;-61
2021/09/16 09:18:56;;;;;;;3.33;1.50;;;20.80;85.20;;;;;;4192002;28;20040;-62
2021/09/16 09:21:19;;;;;;;3.17;1.75;;;20.80;86.00;;;;;;4191590;28;20051;-61
2021/09/16 09:23:45;;;;;;;3.35;1.58;;;20.90;85.20;;;;;;4192169;28;20060;-60
2021/09/16 09:26:22;;;;;;;4.20;1.98;;;20.90;85.00;;;;;;4191812;28;20568;-61
2021/09/16 09:28:46;;;;;;;4.63;1.60;;;20.90;84.80;;;;;;4192036;28;20159;-61
2021/09/16 09:31:16;;;;;;;6.20;1.85;;;20.90;84.80;;;;;;4191703;28;20051;-60
2021/09/16 09:33:38;;;;;;;6.53;2.03;;;20.90;84.70;;;;;;4191843;28;20538;-59
2021/09/16 09:36:12;;;;;;;5.50;1.65;;;20.90;84.90;;;;;;4191970;28;20066;-59
2021/09/16 09:38:47;;;;;;;4.50;2.10;;;20.90;84.50;;;;;;4191304;28;20053;-60
2021/09/16 09:41:09;;;;;;;3.60;1.70;;;20.90;84.60;;;;;;4190792;28;20302;-59
2021/09/16 09:43:33;;;;;;;3.65;1.48;;;20.90;84.60;;;;;;4191773;28;20052;-59
2021/09/16 09:46:06;;;;;;;4.30;1.50;;;20.90;84.30;;;;;;4191474;28;20049;-60
2021/09/16 09:48:33;;;;;;;2.15;1.10;;;20.90;83.80;;;;;;4191207;28;20083;-61
2021/09/16 09:50:56;;;;;;;1.95;1.33;;;20.90;84.20;;;;;;4191450;28;20056;-61
2021/09/16 09:53:19;;;;;;;1.98;1.23;;;20.80;84.30;;;;;;4191016;28;20049;-60
2021/09/16 09:55:42;;;;;;;2.00;1.40;;;20.80;84.50;;;;;;4191190;28;20044;-61
2021/09/16 09:58:05;;;;;;;1.45;1.35;;;20.80;84.50;;;;;;4191462;28;20048;-60
2021/09/16 10:00:28;;;;;;;3.58;1.50;;;20.80;84.90;;;;;;4191304;28;20470;-59
2021/09/16 10:02:54;;;;;;;5.22;1.73;;;20.80;85.20;;;;;;4191085;28;20049;-60
2021/09/16 10:05:22;;;;;;;1.60;1.25;;;20.90;85.20;;;;;;4191422;28;20074;-59
2021/09/16 10:07:45;;;;;;;3.55;1.48;;;20.90;85.30;;;;;;4191235;28;20075;-60
2021/09/16 10:10:10;;;;;;;2.97;1.13;;;20.90;85.40;;;;;;4191251;28;20059;-63
2021/09/16 10:12:33;;;;;;;2.25;1.27;;;20.90;85.50;;;;;;4190820;28;20045;-59
2021/09/16 10:14:58;;;;;;;2.85;1.10;;;20.80;85.50;;;;;;4190781;28;20136;-61
2021/09/16 10:17:24;;;;;;;1.83;0.73;;;20.90;85.10;;;;;;4191344;28;20047;-60
2021/09/16 10:19:48;;;;;;;2.55;1.00;;;20.90;85.10;;;;;;4191250;28;20057;-60
2021/09/16 10:22:11;;;;;;;1.45;0.80;;;20.90;84.90;;;;;;4174800;28;20056;-60
2021/09/16 10:24:34;;;;;;;1.42;0.98;;;20.90;84.90;;;;;;4174643;28;20056;-60
2021/09/16 10:26:56;;;;;;;4.38;1.25;;;20.90;85.00;;;;;;4187750;28;20048;-59
2021/09/16 10:29:36;;;;;;;0.90;0.90;;;20.90;84.90;;;;;;4190910;28;20462;-61
2021/09/16 10:32:35;;;;;;;2.20;1.10;;;20.90;85.00;;;;;;4190829;28;20529;-60
2021/09/16 10:34:59;;;;;;;1.10;1.02;;;20.90;85.00;;;;;;4175457;28;20132;-59
2021/09/16 10:37:22;;;;;;;1.33;0.90;;;20.90;85.20;;;;;;4179007;28;20551;-61
2021/09/16 10:39:46;;;;;;;2.28;1.50;;;20.90;85.50;;;;;;4191367;28;20049;-62
2021/09/16 10:42:10;;;;;;;1.70;1.17;;;20.90;85.30;;;;;;4184237;28;20061;-59
2021/09/16 10:44:32;;;;;;;3.17;1.48;;;20.90;85.20;;;;;;4174383;28;20044;-60
2021/09/16 10:47:00;;;;;;;3.38;1.42;;;20.90;85.30;;;;;;4173755;28;20076;-59
2021/09/16 10:49:31;;;;;;;4.10;1.48;;;20.90;85.30;;;;;;4171520;28;20037;-61
2021/09/16 10:51:57;;;;;;;1.20;1.10;;;20.90;85.50;;;;;;4176065;28;20059;-61
2021/09/16 10:54:50;;;;;;;3.35;1.45;;;20.90;85.40;;;;;;4181105;28;20483;-60
2021/09/16 10:57:14;;;;;;;2.33;1.30;;;20.90;85.30;;;;;;4163092;28;20071;-60
2021/09/16 11:00:06;;;;;;;3.13;1.33;;;20.90;85.30;;;;;;4178123;28;20047;-61
2021/09/16 11:03:03;;;;;;;4.20;1.77;;;20.90;85.20;;;;;;4191496;28;20076;-61
2021/09/16 11:05:39;;;;;;;3.42;1.40;;;20.90;85.20;;;;;;4191793;28;20056;-59
2021/09/16 11:08:03;;;;;;;3.25;2.47;;;20.90;85.30;;;;;;4176255;28;20060;-60
2021/09/16 11:10:51;;;;;;;5.57;1.98;;;20.90;85.10;;;;;;4176644;28;20063;-60
2021/09/16 11:13:49;;;;;;;2.63;1.30;;;20.90;85.20;;;;;;4183157;28;20076;-60
2021/09/16 11:16:11;;;;;;;1.55;1.30;;;20.90;85.10;;;;;;4180783;28;20052;-60
2021/09/16 11:18:36;;;;;;;2.70;1.08;;;20.90;85.20;;;;;;4175773;28;20099;-61
2021/09/16 11:21:00;;;;;;;1.83;1.30;;;20.90;84.90;;;;;;4192725;28;20072;-61
2021/09/16 11:23:37;;;;;;;3.05;1.50;;;20.90;85.10;;;;;;4193092;28;20118;-60
2021/09/16 11:25:59;;;;;;;1.45;1.30;;;20.90;85.10;;;;;;4175981;28;20044;-60
2021/09/16 11:28:22;;;;;;;1.15;1.02;;;20.90;85.20;;;;;;4177757;28;20049;-59
2021/09/16 11:30:46;;;;;;;1.67;1.08;;;20.90;85.10;;;;;;4179639;28;20565;-60
2021/09/16 11:33:11;;;;;;;2.15;1.20;;;20.90;85.00;;;;;;4192194;28;20484;-60
2021/09/16 11:35:34;;;;;;;1.60;1.27;;;20.90;84.90;;;;;;4187221;28;20119;-60
2021/09/16 11:37:56;;;;;;;2.17;1.08;;;20.90;84.90;;;;;;4192633;28;20052;-60
2021/09/16 11:40:22;;;;;;;3.97;1.42;;;20.90;84.90;;;;;;4192873;28;20045;-61
2021/09/16 11:42:47;;;;;;;2.25;1.30;;;20.90;85.00;;;;;;4176482;28;20237;-59
2021/09/16 11:45:18;;;;;;;2.10;1.25;;;20.90;84.90;;;;;;4181892;28;20506;-60
2021/09/16 11:47:43;;;;;;;3.33;1.38;;;20.90;84.90;;;;;;4176333;28;20069;-60
2021/09/16 11:50:08;;;;;;;3.08;1.65;;;20.90;84.90;;;;;;4192489;28;20052;-59
2021/09/16 11:52:30;;;;;;;4.20;1.50;;;20.90;85.00;;;;;;4192213;28;20060;-60
2021/09/16 11:55:52;;;;;;;2.50;1.63;;;20.90;85.10;;;;;;4221928;27;20400;-61
2021/09/16 11:58:16;;;;;;;4.20;1.38;;;20.90;85.20;;;;;;4222626;28;20044;-60
2021/09/16 12:00:44;;;;;;;4.55;1.30;;;20.90;85.30;;;;;;4222425;28;20047;-61
2021/09/16 12:03:09;;;;;;;3.50;1.38;;;20.90;85.50;;;;;;4222717;28;20452;-61
2021/09/16 12:05:46;;;;;;;3.90;1.30;;;20.90;85.50;;;;;;4222082;27;20070;-60
2021/09/16 12:08:14;;;;;;;7.18;1.92;;;21.00;85.60;;;;;;4221917;27;20553;-61
2021/09/16 12:10:46;;;;;;;3.78;1.65;;;21.00;85.60;;;;;;4222038;27;20058;-60
2021/09/16 12:13:12;;;;;;;4.50;2.03;;;21.00;85.60;;;;;;4222134;27;20100;-60
2021/09/16 12:15:36;;;;;;;1.67;1.38;;;21.00;85.70;;;;;;4220049;27;20431;-61
2021/09/16 12:17:59;;;;;;;5.00;1.90;;;21.00;85.60;;;;;;4221471;27;20044;-60
2021/09/16 12:20:21;;;;;;;2.80;1.58;;;21.00;85.80;;;;;;4222402;27;20387;-61
2021/09/16 12:22:44;;;;;;;2.50;1.30;;;21.00;85.70;;;;;;4221774;28;20134;-60
2021/09/16 12:25:07;;;;;;;2.28;1.50;;;21.10;85.40;;;;;;4221794;28;20061;-60
2021/09/16 12:27:30;;;;;;;2.47;1.20;;;21.10;85.00;;;;;;4222103;27;20075;-60
2021/09/16 12:29:55;;;;;;;3.63;1.95;;;21.10;84.60;;;;;;4222097;27;20190;-60
2021/09/16 12:32:18;;;;;;;3.08;1.40;;;21.10;84.50;;;;;;4221938;27;20494;-60